createdAt,value
2022-10-16T00:01:26.006Z,99085.44
2022-10-16T00:03:52.881Z,99088.00
2022-10-16T00:06:22.153Z,99085.28
2022-10-16T00:08:49.579Z,99086.16
2022-10-16T00:11:19.627Z,99086.41
2022-10-16T00:13:47.904Z,99089.22
2022-10-16T00:16:15.918Z,99086.97
2022-10-16T00:18:42.784Z,99088.81
2022-10-16T00:21:14.878Z,99091.84
2022-10-16T00:23:42.120Z,99092.88
2022-10-16T00:26:14.343Z,99091.59
2022-10-16T00:28:42.046Z,99088.50
2022-10-16T00:31:11.831Z,99087.84
2022-10-16T00:33:40.572Z,99087.22
2022-10-16T00:36:09.309Z,99082.00
2022-10-16T00:38:36.107Z,99093.31
2022-10-16T00:41:03.092Z,99088.69
2022-10-16T00:43:38.361Z,99091.06
2022-10-16T00:46:28.621Z,99087.34
2022-10-16T00:49:05.798Z,99094.22
2022-10-16T00:51:42.226Z,99098.38
2022-10-16T00:54:14.366Z,99109.69
2022-10-16T00:56:42.989Z,99105.59
2022-10-16T00:59:31.747Z,99103.19
2022-10-16T01:01:59.967Z,99106.94
2022-10-16T01:04:27.530Z,99104.31
2022-10-16T01:07:16.430Z,99111.31
2022-10-16T01:10:03.415Z,99114.84
2022-10-16T01:12:49.216Z,99120.28
2022-10-16T01:15:26.516Z,99121.34
2022-10-16T01:18:12.493Z,99119.69
2022-10-16T01:20:46.325Z,99124.25
2022-10-16T01:23:22.858Z,99127.81
2022-10-16T01:26:20.476Z,99121.81
2022-10-16T01:29:02.657Z,99133.25
2022-10-16T01:31:34.103Z,99122.72
2022-10-16T01:34:09.719Z,99125.50
2022-10-16T01:36:40.934Z,99123.63
2022-10-16T01:39:10.879Z,99132.28
2022-10-16T01:41:48.083Z,99138.22
2022-10-16T01:44:20.791Z,99126.50
2022-10-16T01:46:51.296Z,99130.53
2022-10-16T01:49:19.684Z,99127.63
2022-10-16T01:51:49.559Z,99127.16
2022-10-16T01:54:19.888Z,99129.25
2022-10-16T01:56:49.717Z,99128.78
2022-10-16T01:59:21.913Z,99131.72
2022-10-16T02:01:53.909Z,99127.63
2022-10-16T02:04:37.307Z,99139.41
2022-10-16T02:07:04.563Z,99142.41
2022-10-16T02:09:34.688Z,99136.66
2022-10-16T02:12:08.654Z,99130.88
2022-10-16T02:14:38.971Z,99145.25
2022-10-16T02:17:17.667Z,99134.97
2022-10-16T02:19:48.218Z,99140.72
2022-10-16T02:22:37.339Z,99125.31
2022-10-16T02:25:04.228Z,99123.34
2022-10-16T02:27:44.031Z,99123.00
2022-10-16T02:30:19.444Z,99127.16
2022-10-16T02:32:49.161Z,99137.47
2022-10-16T02:35:19.729Z,99137.31
2022-10-16T02:37:47.782Z,99136.25
2022-10-16T02:40:15.699Z,99142.31
2022-10-16T02:42:42.796Z,99143.69
2022-10-16T02:45:11.418Z,99139.84
2022-10-16T02:47:38.787Z,99137.78
2022-10-16T02:50:06.293Z,99138.97
2022-10-16T02:52:33.488Z,99134.03
2022-10-16T02:55:00.549Z,99131.63
2022-10-16T02:57:28.187Z,99142.66
2022-10-16T02:59:55.564Z,99147.38
2022-10-16T03:02:22.362Z,99149.56
2022-10-16T03:04:49.386Z,99148.31
2022-10-16T03:07:16.439Z,99151.69
2022-10-16T03:09:43.663Z,99157.34
2022-10-16T03:12:10.511Z,99150.91
2022-10-16T03:14:37.658Z,99145.41
2022-10-16T03:17:04.432Z,99145.41
2022-10-16T03:19:31.357Z,99152.25
2022-10-16T03:21:58.389Z,99154.56
2022-10-16T03:24:25.318Z,99150.22
2022-10-16T03:26:52.071Z,99151.13
2022-10-16T03:29:19.084Z,99153.00
2022-10-16T03:31:45.953Z,99156.53
2022-10-16T03:34:12.971Z,99160.81
2022-10-16T03:36:39.739Z,99145.84
2022-10-16T03:39:06.753Z,99156.38
2022-10-16T03:41:33.559Z,99164.13
2022-10-16T03:44:00.524Z,99157.16
2022-10-16T03:46:27.339Z,99162.44
2022-10-16T03:48:54.338Z,99161.47
2022-10-16T03:51:21.114Z,99154.44
2022-10-16T03:53:48.191Z,99164.13
2022-10-16T03:56:15.010Z,99169.53
2022-10-16T03:58:42.175Z,99173.03
2022-10-16T04:01:09.086Z,99168.03
2022-10-16T04:03:36.114Z,99168.97
2022-10-16T04:06:03.034Z,99168.19
2022-10-16T04:08:30.124Z,99182.19
2022-10-16T04:10:56.911Z,99184.91
2022-10-16T04:13:23.964Z,99184.06
2022-10-16T04:15:50.727Z,99185.06
2022-10-16T04:18:17.689Z,99185.22
2022-10-16T04:20:44.450Z,99184.44
2022-10-16T04:23:11.408Z,99189.88
2022-10-16T04:25:38.380Z,99187.41
2022-10-16T04:28:05.379Z,99190.97
2022-10-16T04:30:32.234Z,99193.59
2022-10-16T04:32:59.196Z,99188.47
2022-10-16T04:35:25.946Z,99189.38
2022-10-16T04:37:52.967Z,99192.19
2022-10-16T04:40:19.859Z,99179.97
2022-10-16T04:42:46.824Z,99186.97
2022-10-16T04:45:16.433Z,99190.56
2022-10-16T04:47:44.247Z,99194.00
2022-10-16T04:50:10.992Z,99201.06
2022-10-16T04:52:38.023Z,99200.19
2022-10-16T04:55:05.406Z,99203.72
2022-10-16T04:57:34.305Z,99204.41
2022-10-16T05:00:01.081Z,99207.00
2022-10-16T05:02:28.154Z,99205.97
2022-10-16T05:04:55.005Z,99210.31
2022-10-16T05:07:22.001Z,99217.06
2022-10-16T05:09:48.799Z,99215.66
2022-10-16T05:12:15.833Z,99223.81
2022-10-16T05:14:42.606Z,99223.72
2022-10-16T05:17:09.729Z,99226.31
2022-10-16T05:19:36.543Z,99226.75
2022-10-16T05:22:04.110Z,99240.25
2022-10-16T05:24:30.926Z,99233.97
2022-10-16T05:26:58.019Z,99227.41
2022-10-16T05:29:25.058Z,99240.59
2022-10-16T05:31:53.792Z,99240.22
2022-10-16T05:34:21.568Z,99244.75
2022-10-16T05:36:48.650Z,99244.94
2022-10-16T05:39:16.911Z,99244.69
2022-10-16T05:41:44.649Z,99246.06
2022-10-16T05:44:11.818Z,99256.34
2022-10-16T05:46:38.844Z,99250.53
2022-10-16T05:49:05.742Z,99251.66
2022-10-16T05:51:32.735Z,99258.84
2022-10-16T05:53:59.578Z,99258.91
2022-10-16T05:56:26.621Z,99265.00
2022-10-16T05:58:53.929Z,99267.56
2022-10-16T06:01:25.393Z,99268.34
2022-10-16T06:03:53.229Z,99270.03
2022-10-16T06:06:23.872Z,99269.78
2022-10-16T06:08:50.927Z,99269.00
2022-10-16T06:11:20.287Z,99275.00
2022-10-16T06:13:54.623Z,99282.72
2022-10-16T06:16:22.131Z,99286.13
2022-10-16T06:18:51.388Z,99287.75
2022-10-16T06:21:20.865Z,99305.38
2022-10-16T06:23:48.604Z,99298.88
2022-10-16T06:26:19.255Z,99296.16
2022-10-16T06:28:46.137Z,99307.19
2022-10-16T06:31:13.725Z,99303.50
2022-10-16T06:33:41.137Z,99305.72
2022-10-16T06:36:10.885Z,99309.81
2022-10-16T06:38:38.664Z,99308.44
2022-10-16T06:41:07.167Z,99314.09
2022-10-16T06:43:36.370Z,99315.84
2022-10-16T06:46:05.755Z,99312.25
2022-10-16T06:48:32.603Z,99315.22
2022-10-16T06:51:09.427Z,99315.38
2022-10-16T06:53:49.164Z,99317.69
2022-10-16T06:56:28.521Z,99314.63
2022-10-16T06:58:55.375Z,99329.38
2022-10-16T07:01:25.008Z,99320.00
2022-10-16T07:03:51.625Z,99330.25
2022-10-16T07:06:20.674Z,99330.06
2022-10-16T07:08:48.436Z,99334.81
2022-10-16T07:11:21.116Z,99344.41
2022-10-16T07:13:52.700Z,99348.69
2022-10-16T07:16:26.072Z,99330.25
2022-10-16T07:18:59.217Z,99328.31
2022-10-16T07:21:29.732Z,99332.84
2022-10-16T07:24:02.461Z,99336.88
2022-10-16T07:26:35.488Z,99334.38
2022-10-16T07:29:02.513Z,99340.16
2022-10-16T07:31:29.605Z,99347.47
2022-10-16T07:33:58.594Z,99348.88
2022-10-16T07:36:25.766Z,99345.50
2022-10-16T07:38:55.452Z,99347.69
2022-10-16T07:41:25.848Z,99345.78
2022-10-16T07:43:54.279Z,99347.94
2022-10-16T07:46:23.303Z,99338.94
2022-10-16T07:48:51.442Z,99349.44
2022-10-16T07:51:20.889Z,99353.88
2022-10-16T07:53:48.145Z,99359.66
2022-10-16T07:56:16.555Z,99355.53
2022-10-16T07:58:43.894Z,99360.88
2022-10-16T08:01:14.157Z,99364.63
2022-10-16T08:03:50.020Z,99371.09
2022-10-16T08:06:20.778Z,99361.41
2022-10-16T08:08:50.785Z,99373.69
2022-10-16T08:11:18.070Z,99368.56
2022-10-16T08:13:44.913Z,99366.00
2022-10-16T08:16:12.271Z,99381.91
2022-10-16T08:18:40.886Z,99371.94
2022-10-16T08:21:16.863Z,99369.94
2022-10-16T08:23:45.858Z,99371.56
2022-10-16T08:26:13.876Z,99373.75
2022-10-16T08:28:40.954Z,99372.16
2022-10-16T08:31:10.495Z,99368.22
2022-10-16T08:33:37.686Z,99372.81
2022-10-16T08:36:06.439Z,99371.00
2022-10-16T08:38:34.552Z,99376.97
2022-10-16T08:41:13.945Z,99383.81
2022-10-16T08:43:56.049Z,99375.03
2022-10-16T08:46:31.365Z,99371.19
2022-10-16T08:49:00.473Z,99375.72
2022-10-16T08:51:33.565Z,99384.34
2022-10-16T08:54:23.911Z,99368.00
2022-10-16T08:56:50.975Z,99377.59
2022-10-16T08:59:18.451Z,99372.53
2022-10-16T09:01:48.349Z,99385.47
2022-10-16T09:04:38.975Z,99398.00
2022-10-16T09:07:17.563Z,99388.25
2022-10-16T09:10:01.899Z,99392.88
2022-10-16T09:12:33.063Z,99391.41
2022-10-16T09:15:19.089Z,99380.56
2022-10-16T09:18:13.663Z,99403.13
2022-10-16T09:20:49.275Z,99395.63
2022-10-16T09:23:32.023Z,99393.72
2022-10-16T09:26:00.155Z,99397.47
2022-10-16T09:28:27.460Z,99390.66
2022-10-16T09:30:55.312Z,99399.78
2022-10-16T09:33:29.318Z,99401.34
2022-10-16T09:35:59.817Z,99391.69
2022-10-16T09:38:37.560Z,99391.91
2022-10-16T09:41:22.057Z,99389.44
2022-10-16T09:43:56.788Z,99378.56
2022-10-16T09:46:23.501Z,99389.28
2022-10-16T09:48:52.802Z,99396.88
2022-10-16T09:51:32.456Z,99403.81
2022-10-16T09:54:22.704Z,99408.38
2022-10-16T09:56:53.000Z,99411.59
2022-10-16T09:59:25.077Z,99418.59
2022-10-16T10:01:56.404Z,99414.31
2022-10-16T10:04:27.103Z,99430.59
2022-10-16T10:06:56.879Z,99415.66
2022-10-16T10:09:25.387Z,99424.56
2022-10-16T10:11:55.063Z,99427.59
2022-10-16T10:14:41.187Z,99426.53
2022-10-16T10:17:07.896Z,99426.25
2022-10-16T10:19:51.586Z,99426.94
2022-10-16T10:22:46.874Z,99422.19
2022-10-16T10:25:13.898Z,99420.19
2022-10-16T10:27:52.174Z,99420.34
2022-10-16T10:30:28.815Z,99422.31
2022-10-16T10:33:01.602Z,99418.78
2022-10-16T10:35:43.019Z,99414.38
2022-10-16T10:38:36.921Z,99406.88
2022-10-16T10:41:44.495Z,99416.63
2022-10-16T10:44:29.766Z,99416.38
2022-10-16T10:47:18.143Z,99405.13
2022-10-16T10:49:54.482Z,99409.88
2022-10-16T10:53:15.525Z,99403.84
2022-10-16T10:55:52.362Z,99406.88
2022-10-16T10:58:45.404Z,99391.44
2022-10-16T11:01:15.132Z,99394.91
2022-10-16T11:04:04.450Z,99392.66
2022-10-16T11:06:55.604Z,99392.63
2022-10-16T11:09:54.725Z,99389.66
2022-10-16T11:12:28.718Z,99392.19
2022-10-16T11:15:18.985Z,99390.47
2022-10-16T11:17:58.710Z,99380.16
2022-10-16T11:20:29.620Z,99388.09
2022-10-16T11:23:10.269Z,99393.50
2022-10-16T11:25:37.343Z,99385.16
2022-10-16T11:28:18.098Z,99387.44
2022-10-16T11:30:51.475Z,99389.56
2022-10-16T11:33:32.690Z,99398.97
2022-10-16T11:36:08.707Z,99385.09
2022-10-16T11:38:42.445Z,99395.50
2022-10-16T11:41:35.886Z,99384.34
2022-10-16T11:44:08.401Z,99382.66
2022-10-16T11:46:52.622Z,99384.38
2022-10-16T11:49:29.424Z,99390.59
2022-10-16T11:52:21.276Z,99394.16
2022-10-16T11:54:58.441Z,99404.41
2022-10-16T11:58:02.247Z,99406.81
2022-10-16T12:00:42.719Z,99398.78
2022-10-16T12:03:22.772Z,99397.81
2022-10-16T12:05:58.930Z,99398.91
2022-10-16T12:08:26.844Z,99400.94
2022-10-16T12:10:53.891Z,99387.72
2022-10-16T12:13:30.193Z,99392.56
2022-10-16T12:16:12.605Z,99395.25
2022-10-16T12:18:45.767Z,99389.88
2022-10-16T12:21:16.724Z,99389.66
2022-10-16T12:23:53.155Z,99400.94
2022-10-16T12:26:32.728Z,99383.25
2022-10-16T12:29:32.135Z,99390.34
2022-10-16T12:31:59.269Z,99381.03
2022-10-16T12:34:33.878Z,99395.00
2022-10-16T12:37:26.341Z,99387.34
2022-10-16T12:39:55.628Z,99388.06
2022-10-16T12:42:42.504Z,99395.88
2022-10-16T12:45:26.017Z,99391.00
2022-10-16T12:47:55.235Z,99389.91
2022-10-16T12:50:36.645Z,99382.38
2022-10-16T12:53:17.820Z,99376.69
2022-10-16T12:56:15.969Z,99384.50
2022-10-16T12:58:51.553Z,99382.22
2022-10-16T13:01:21.501Z,99378.69
2022-10-16T13:04:12.536Z,99381.81
2022-10-16T13:07:10.481Z,99382.53
2022-10-16T13:09:53.148Z,99374.25
2022-10-16T13:12:35.290Z,99379.50
2022-10-16T13:15:19.969Z,99387.78
2022-10-16T13:18:13.538Z,99384.66
2022-10-16T13:21:04.904Z,99395.22
2022-10-16T13:23:43.804Z,99407.72
2022-10-16T13:26:19.418Z,99395.25
2022-10-16T13:28:46.819Z,99404.81
2022-10-16T13:31:33.259Z,99408.59
2022-10-16T13:34:01.823Z,99407.63
2022-10-16T13:36:37.233Z,99423.63
2022-10-16T13:39:13.055Z,99413.25
2022-10-16T13:41:39.999Z,99407.25
2022-10-16T13:44:16.746Z,99419.91
2022-10-16T13:46:43.621Z,99433.78
2022-10-16T13:49:17.058Z,99424.16
2022-10-16T13:51:56.238Z,99417.13
2022-10-16T13:54:24.521Z,99427.84
2022-10-16T13:57:03.027Z,99418.72
2022-10-16T13:59:39.675Z,99425.69
2022-10-16T14:02:26.357Z,99424.16
2022-10-16T14:04:55.022Z,99428.78
2022-10-16T14:07:32.175Z,99422.97
2022-10-16T14:10:04.514Z,99428.78
2022-10-16T14:12:31.828Z,99425.59
2022-10-16T14:15:01.214Z,99424.72
2022-10-16T14:17:34.719Z,99421.88
2022-10-16T14:20:07.041Z,99422.94
2022-10-16T14:22:34.542Z,99425.03
2022-10-16T14:25:03.430Z,99430.94
2022-10-16T14:27:33.725Z,99446.19
2022-10-16T14:30:13.589Z,99428.59
2022-10-16T14:32:43.260Z,99428.44
2022-10-16T14:35:32.979Z,99437.88
2022-10-16T14:38:01.849Z,99436.63
2022-10-16T14:40:34.918Z,99437.25
2022-10-16T14:43:03.824Z,99438.56
2022-10-16T14:45:34.874Z,99435.72
2022-10-16T14:48:06.070Z,99428.34
2022-10-16T14:50:33.262Z,99433.34
2022-10-16T14:53:00.153Z,99441.69
2022-10-16T14:55:27.408Z,99438.59
2022-10-16T14:57:58.222Z,99447.44
2022-10-16T15:00:28.101Z,99449.16
2022-10-16T15:02:54.838Z,99451.81
2022-10-16T15:05:27.378Z,99456.19
2022-10-16T15:07:56.447Z,99455.63
2022-10-16T15:10:25.311Z,99448.25
2022-10-16T15:12:52.960Z,99452.72
2022-10-16T15:15:35.533Z,99454.34
2022-10-16T15:18:03.665Z,99461.34
2022-10-16T15:20:34.833Z,99466.63
2022-10-16T15:23:04.470Z,99458.47
2022-10-16T15:25:47.289Z,99464.19
2022-10-16T15:28:15.491Z,99458.41
2022-10-16T15:30:43.357Z,99456.59
2022-10-16T15:33:14.794Z,99466.78
2022-10-16T15:35:41.889Z,99472.31
2022-10-16T15:38:13.630Z,99465.47
2022-10-16T15:40:41.706Z,99465.94
2022-10-16T15:43:09.027Z,99466.22
2022-10-16T15:45:36.221Z,99468.41
2022-10-16T15:48:03.140Z,99470.44
2022-10-16T15:50:31.797Z,99475.09
2022-10-16T15:52:58.984Z,99477.00
2022-10-16T15:55:26.012Z,99477.28
2022-10-16T15:57:52.843Z,99474.13
2022-10-16T16:00:26.491Z,99477.84
2022-10-16T16:02:54.926Z,99479.81
2022-10-16T16:05:23.064Z,99476.47
2022-10-16T16:07:50.082Z,99480.19
2022-10-16T16:10:17.703Z,99492.06
2022-10-16T16:12:50.323Z,99490.16
2022-10-16T16:15:17.531Z,99493.03
2022-10-16T16:17:45.195Z,99489.03
2022-10-16T16:20:13.180Z,99500.13
2022-10-16T16:22:40.209Z,99503.25
2022-10-16T16:25:07.480Z,99518.88
2022-10-16T16:27:35.218Z,99516.69
2022-10-16T16:30:04.582Z,99519.63
2022-10-16T16:32:31.880Z,99518.00
2022-10-16T16:34:58.857Z,99512.47
2022-10-16T16:37:25.913Z,99511.72
2022-10-16T16:39:55.367Z,99520.66
2022-10-16T16:42:22.533Z,99511.63
2022-10-16T16:44:49.480Z,99515.16
2022-10-16T16:47:16.243Z,99522.97
2022-10-16T16:49:43.319Z,99522.19
2022-10-16T16:52:10.105Z,99526.75
2022-10-16T16:54:37.179Z,99527.09
2022-10-16T16:57:05.213Z,99529.84
2022-10-16T16:59:33.823Z,99525.75
2022-10-16T17:02:01.227Z,99518.19
2022-10-16T17:04:28.322Z,99526.28
2022-10-16T17:06:56.113Z,99510.47
2022-10-16T17:09:23.345Z,99522.34
2022-10-16T17:11:50.150Z,99533.22
2022-10-16T17:14:17.219Z,99522.34
2022-10-16T17:16:48.672Z,99537.78
2022-10-16T17:19:18.813Z,99538.00
2022-10-16T17:21:46.473Z,99542.09
2022-10-16T17:24:13.472Z,99535.25
2022-10-16T17:26:41.562Z,99553.00
2022-10-16T17:29:12.411Z,99543.22
2022-10-16T17:31:39.359Z,99543.22
2022-10-16T17:34:08.619Z,99544.16
2022-10-16T17:36:37.861Z,99546.97
2022-10-16T17:39:09.581Z,99553.06
2022-10-16T17:41:37.167Z,99554.03
2022-10-16T17:44:05.714Z,99565.56
2022-10-16T17:46:36.873Z,99559.50
2022-10-16T17:49:07.234Z,99570.88
2022-10-16T17:51:34.099Z,99574.50
2022-10-16T17:54:01.634Z,99569.38
2022-10-16T17:56:29.831Z,99573.97
2022-10-16T17:59:01.928Z,99569.75
2022-10-16T18:01:37.430Z,99571.75
2022-10-16T18:04:09.395Z,99570.84
2022-10-16T18:06:37.593Z,99585.78
2022-10-16T18:09:05.976Z,99576.81
2022-10-16T18:11:32.893Z,99589.31
2022-10-16T18:14:00.405Z,99587.44
2022-10-16T18:16:29.582Z,99592.81
2022-10-16T18:18:57.955Z,99595.66
2022-10-16T18:21:27.561Z,99589.81
2022-10-16T18:23:55.200Z,99596.09
2022-10-16T18:26:23.030Z,99594.47
2022-10-16T18:28:54.296Z,99595.44
2022-10-16T18:31:23.048Z,99603.47
2022-10-16T18:33:51.395Z,99590.19
2022-10-16T18:36:29.803Z,99594.91
2022-10-16T18:38:57.561Z,99600.44
2022-10-16T18:41:25.196Z,99602.50
2022-10-16T18:43:52.674Z,99592.19
2022-10-16T18:46:21.850Z,99598.75
2022-10-16T18:48:49.132Z,99596.47
2022-10-16T18:51:19.984Z,99600.09
2022-10-16T18:53:50.280Z,99606.00
2022-10-16T18:56:18.999Z,99613.91
2022-10-16T18:58:48.644Z,99605.59
2022-10-16T19:01:20.986Z,99604.59
2022-10-16T19:04:09.587Z,99615.22
2022-10-16T19:06:39.838Z,99618.63
2022-10-16T19:09:08.458Z,99630.19
2022-10-16T19:11:39.166Z,99630.38
2022-10-16T19:14:08.907Z,99627.72
2022-10-16T19:16:36.232Z,99635.81
2022-10-16T19:19:06.587Z,99628.03
2022-10-16T19:21:36.671Z,99639.66
2022-10-16T19:24:04.268Z,99643.34
2022-10-16T19:26:33.382Z,99654.81
2022-10-16T19:29:04.692Z,99660.09
2022-10-16T19:31:31.956Z,99658.13
2022-10-16T19:34:01.156Z,99659.81
2022-10-16T19:36:31.276Z,99653.38
2022-10-16T19:39:00.613Z,99649.81
2022-10-16T19:41:29.399Z,99643.47
2022-10-16T19:44:00.941Z,99652.22
2022-10-16T19:46:27.948Z,99652.94
2022-10-16T19:49:01.008Z,99653.69
2022-10-16T19:51:28.919Z,99661.59
2022-10-16T19:53:58.705Z,99665.03
2022-10-16T19:56:27.681Z,99655.97
2022-10-16T19:58:56.018Z,99664.00
2022-10-16T20:01:23.694Z,99671.13
2022-10-16T20:03:50.904Z,99673.94
2022-10-16T20:06:19.405Z,99678.53
2022-10-16T20:08:48.351Z,99674.31
2022-10-16T20:11:18.074Z,99671.84
2022-10-16T20:13:45.254Z,99679.78
2022-10-16T20:16:13.962Z,99678.84
2022-10-16T20:18:41.747Z,99682.50
2022-10-16T20:21:14.640Z,99682.44
2022-10-16T20:23:42.180Z,99685.00
2022-10-16T20:26:11.578Z,99677.81
2022-10-16T20:28:40.618Z,99690.19
2022-10-16T20:31:11.235Z,99690.19
2022-10-16T20:33:38.398Z,99689.41
2022-10-16T20:36:10.240Z,99691.34
2022-10-16T20:38:37.706Z,99690.53
2022-10-16T20:41:05.332Z,99700.31
2022-10-16T20:43:32.390Z,99689.69
2022-10-16T20:46:01.623Z,99694.78
2022-10-16T20:48:28.769Z,99689.63
2022-10-16T20:50:55.578Z,99696.34
2022-10-16T20:53:22.859Z,99702.28
2022-10-16T20:55:49.706Z,99694.31
2022-10-16T20:58:17.534Z,99694.94
2022-10-16T21:00:44.963Z,99700.03
2022-10-16T21:03:12.383Z,99695.56
2022-10-16T21:05:42.626Z,99701.78
2022-10-16T21:08:09.869Z,99698.22
2022-10-16T21:10:36.787Z,99702.81
2022-10-16T21:13:04.027Z,99707.28
2022-10-16T21:15:30.863Z,99701.28
2022-10-16T21:17:57.876Z,99696.16
2022-10-16T21:20:24.741Z,99709.63
2022-10-16T21:22:51.758Z,99712.28
2022-10-16T21:25:18.747Z,99720.47
2022-10-16T21:27:46.053Z,99722.28
2022-10-16T21:30:13.108Z,99714.44
2022-10-16T21:32:40.211Z,99730.59
2022-10-16T21:35:07.628Z,99725.63
2022-10-16T21:37:35.245Z,99727.53
2022-10-16T21:40:02.410Z,99726.69
2022-10-16T21:42:30.101Z,99730.03
2022-10-16T21:44:57.118Z,99729.69
2022-10-16T21:47:24.093Z,99731.94
2022-10-16T21:49:50.908Z,99733.56
2022-10-16T21:52:17.911Z,99740.16
2022-10-16T21:54:44.652Z,99749.31
2022-10-16T21:57:11.650Z,99741.09
2022-10-16T21:59:38.552Z,99752.50
2022-10-16T22:02:06.160Z,99753.22
2022-10-16T22:04:33.203Z,99762.66
2022-10-16T22:07:00.285Z,99757.28
2022-10-16T22:09:27.161Z,99767.06
2022-10-16T22:11:54.141Z,99756.31
2022-10-16T22:14:22.108Z,99767.50
2022-10-16T22:16:50.021Z,99762.84
2022-10-16T22:19:19.564Z,99761.75
2022-10-16T22:21:47.862Z,99764.53
2022-10-16T22:24:18.089Z,99769.06
2022-10-16T22:26:45.420Z,99769.06
2022-10-16T22:29:13.628Z,99764.84
2022-10-16T22:31:40.699Z,99765.78
2022-10-16T22:34:07.684Z,99771.81
2022-10-16T22:36:35.033Z,99771.81
2022-10-16T22:39:02.904Z,99764.94
2022-10-16T22:41:30.192Z,99772.28
2022-10-16T22:43:57.065Z,99771.50
2022-10-16T22:46:27.746Z,99771.72
2022-10-16T22:48:56.021Z,99775.94
2022-10-16T22:51:24.420Z,99781.19
2022-10-16T22:53:51.507Z,99782.28
2022-10-16T22:56:20.932Z,99785.22
2022-10-16T22:58:47.805Z,99790.66
2022-10-16T23:01:26.922Z,99782.03
2022-10-16T23:03:54.244Z,99778.69
2022-10-16T23:06:21.381Z,99794.63
2022-10-16T23:08:56.363Z,99787.56
2022-10-16T23:11:24.082Z,99803.59
2022-10-16T23:13:50.959Z,99788.50
2022-10-16T23:16:19.875Z,99790.16
2022-10-16T23:18:47.324Z,99793.75
2022-10-16T23:21:20.974Z,99795.63
2022-10-16T23:23:48.439Z,99793.09
2022-10-16T23:26:22.503Z,99804.75
2022-10-16T23:28:49.906Z,99799.38
2022-10-16T23:31:18.149Z,99806.31
2022-10-16T23:33:45.170Z,99806.47
2022-10-16T23:36:14.839Z,99804.84
2022-10-16T23:38:43.328Z,99812.09
2022-10-16T23:41:10.864Z,99817.47
2022-10-16T23:43:38.111Z,99814.97
2022-10-16T23:46:07.010Z,99814.34
2022-10-16T23:48:34.353Z,99815.47
2022-10-16T23:51:01.442Z,99823.44
2022-10-16T23:53:28.205Z,99820.16
2022-10-16T23:55:55.197Z,99829.25
2022-10-16T23:58:22.752Z,99814.41
